Time;durP1;ratioP1;P1;durP2;ratioP2;P2;SDS_P1;SDS_P2;PMS_P1;PMS_P2;Temp;Humidity;BMP_temperature;BMP_pressure;BME280_temperature;BME280_humidity;BME280_pressure;Samples;Min_cycle;Max_cycle;Signal;HPM_P1;HPM_P2
2022/07/13 00:00:26;;;;;;;1.77;1.25;;;;;;;21.22;59.34;100949.03;4865226;29;20074;-75
2022/07/13 00:02:53;;;;;;;2.70;1.30;;;;;;;21.18;59.59;100946.06;4870827;29;20050;-73
2022/07/13 00:05:19;;;;;;;1.67;1.30;;;;;;;21.16;59.58;100950.31;4856433;29;20041;-74
2022/07/13 00:07:45;;;;;;;1.27;1.10;;;;;;;21.15;59.64;100955.06;4852260;29;20509;-74
2022/07/13 00:10:10;;;;;;;2.13;1.10;;;;;;;21.13;59.35;100950.97;4836333;29;20041;-74
2022/07/13 00:12:36;;;;;;;2.50;1.27;;;;;;;21.10;59.62;100950.47;4848630;29;20041;-72
2022/07/13 00:15:02;;;;;;;2.13;1.10;;;;;;;21.09;59.40;100953.59;4865564;29;20100;-73
2022/07/13 00:17:27;;;;;;;4.43;1.02;;;;;;;21.02;59.42;100950.47;4887386;29;20527;-73
2022/07/13 00:19:52;;;;;;;2.08;0.85;;;;;;;21.00;59.00;100939.69;4886132;29;20084;-74
2022/07/13 00:22:18;;;;;;;2.60;1.05;;;;;;;20.99;58.79;100940.00;4865547;29;20029;-74
2022/07/13 00:24:43;;;;;;;1.55;0.90;;;;;;;20.95;58.90;100939.81;4857218;29;20029;-74
2022/07/13 00:27:09;;;;;;;1.02;0.80;;;;;;;20.96;58.97;100940.66;4869001;29;20041;-74
2022/07/13 00:29:35;;;;;;;0.70;0.70;;;;;;;20.94;58.91;100943.75;4885849;29;20029;-73
2022/07/13 00:32:00;;;;;;;0.95;0.80;;;;;;;20.91;58.41;100944.41;4890455;29;20029;-73
2022/07/13 00:34:25;;;;;;;0.85;0.80;;;;;;;20.88;58.53;100945.03;4883581;29;20396;-73
2022/07/13 00:36:51;;;;;;;2.08;0.70;;;;;;;20.86;58.21;100936.22;4881178;29;20473;-73
2022/07/13 00:39:16;;;;;;;0.45;0.45;;;;;;;20.82;58.32;100929.66;4883205;29;20033;-73
2022/07/13 00:41:46;;;;;;;0.50;0.50;;;;;;;20.84;58.13;100935.72;4880777;29;20041;-74
2022/07/13 00:44:13;;;;;;;0.93;0.65;;;;;;;20.82;57.60;100930.50;4883082;29;20180;-73
2022/07/13 00:46:40;;;;;;;0.88;0.70;;;;;;;20.87;57.54;100940.63;4888550;29;20037;-75
2022/07/13 00:49:05;;;;;;;1.02;0.60;;;;;;;20.85;57.30;100935.41;4889386;29;20500;-74
2022/07/13 00:51:31;;;;;;;0.50;0.50;;;;;;;20.90;57.34;100943.56;4869639;29;20040;-75
2022/07/13 00:53:59;;;;;;;0.65;0.50;;;;;;;20.90;57.02;100935.22;4886792;29;20032;-74
2022/07/13 00:56:26;;;;;;;0.47;0.40;;;;;;;20.91;56.86;100931.31;4887080;29;20088;-74
2022/07/13 00:58:52;;;;;;;0.40;0.40;;;;;;;20.92;56.66;100923.78;4888472;29;20056;-73
2022/07/13 01:01:17;;;;;;;0.25;0.25;;;;;;;20.91;56.72;100927.72;4890840;29;20071;-72
2022/07/13 01:03:43;;;;;;;0.90;0.30;;;;;;;20.92;56.18;100930.19;4882487;29;20093;-74
2022/07/13 01:06:10;;;;;;;0.90;0.70;;;;;;;20.88;56.58;100920.00;4881453;29;20049;-72
2022/07/13 01:08:35;;;;;;;1.10;0.70;;;;;;;20.83;56.74;100920.19;4883757;29;20028;-72
2022/07/13 01:11:01;;;;;;;0.60;0.60;;;;;;;20.79;56.72;100919.19;4863284;29;20548;-73
2022/07/13 01:13:35;;;;;;;0.47;0.47;;;;;;;20.70;56.96;100921.94;4880511;29;20472;-73
2022/07/13 01:16:28;;;;;;;0.30;0.30;;;;;;;20.57;57.52;100918.09;4878132;29;20097;-72
2022/07/13 01:18:58;;;;;;;0.85;0.40;;;;;;;20.44;56.98;100907.94;4879184;29;20040;-73
2022/07/13 01:23:58;;;;;;;1.20;0.60;;;;;;;20.26;57.77;100927.31;4883484;29;20068;-74
2022/07/13 01:26:24;;;;;;;2.33;0.73;;;;;;;20.15;58.40;100940.66;4851485;29;20489;-73
2022/07/13 01:28:49;;;;;;;1.98;1.02;;;;;;;20.03;58.52;100930.16;4868684;29;20119;-74
2022/07/13 01:31:34;;;;;;;3.58;1.00;;;;;;;19.89;58.69;100926.63;4851840;29;20036;-75
2022/07/13 01:34:00;;;;;;;3.03;0.90;;;;;;;19.79;59.01;100919.38;4883297;29;20025;-73
2022/07/13 01:36:26;;;;;;;0.68;0.55;;;;;;;19.77;59.02;100929.09;4883948;29;20040;-73
2022/07/13 01:38:51;;;;;;;1.27;0.85;;;;;;;19.74;59.38;100929.75;4863947;29;20029;-74
2022/07/13 01:41:19;;;;;;;2.80;1.00;;;;;;;19.67;59.54;100914.38;4879319;29;20036;-74
2022/07/13 01:43:46;;;;;;;0.93;0.73;;;;;;;19.68;59.76;100926.28;4880135;29;20040;-73
2022/07/13 01:46:11;;;;;;;2.05;1.15;;;;;;;19.63;59.98;100918.91;4884805;29;20036;-74
2022/07/13 01:48:37;;;;;;;2.22;0.82;;;;;;;19.57;59.58;100914.63;4853847;29;20025;-73
2022/07/13 01:51:03;;;;;;;0.80;0.70;;;;;;;19.47;60.34;100910.13;4881315;29;20064;-73
2022/07/13 01:53:28;;;;;;;2.22;1.38;;;;;;;19.45;60.52;100917.13;4883724;29;20081;-74
2022/07/13 01:55:53;;;;;;;1.67;0.90;;;;;;;19.40;60.56;100918.06;4865356;29;20041;-73
2022/07/13 01:58:19;;;;;;;2.53;1.17;;;;;;;19.31;61.15;100906.09;4883168;29;20137;-73
2022/07/13 02:00:45;;;;;;;2.40;0.98;;;;;;;19.26;61.14;100908.97;4836777;29;20037;-74
2022/07/13 02:03:11;;;;;;;1.65;1.02;;;;;;;19.20;61.10;100905.50;4832277;29;20045;-74
2022/07/13 02:05:48;;;;;;;5.22;1.30;;;;;;;19.21;61.55;100907.16;4867229;29;20108;-73
2022/07/13 02:13:28;;;;;;;1.27;0.82;;;;;;;19.20;61.25;100913.81;1298772;27;20089;-75
2022/07/13 02:15:55;;;;;;;0.73;0.50;;;;;;;19.23;60.91;100907.66;4848917;29;20045;-73
2022/07/13 02:18:24;;;;;;;0.60;0.60;;;;;;;19.41;61.21;100916.13;4850184;29;20045;-74
2022/07/13 02:20:50;;;;;;;0.90;0.57;;;;;;;19.53;60.62;100916.38;4865920;29;20025;-74
2022/07/13 02:23:15;;;;;;;0.60;0.60;;;;;;;19.54;60.67;100898.63;4867579;29;20533;-74
2022/07/13 02:25:41;;;;;;;0.90;0.52;;;;;;;19.69;60.35;100906.53;4826877;29;20030;-74
2022/07/13 02:28:06;;;;;;;3.08;1.13;;;;;;;19.80;60.59;100907.16;4881134;29;20797;-74
2022/07/13 02:30:33;;;;;;;1.73;1.20;;;;;;;19.62;60.02;100872.06;4858550;29;20096;-74
2022/07/13 02:32:59;;;;;;;1.92;1.02;;;;;;;19.82;60.51;100904.84;4863955;29;20029;-74
2022/07/13 02:35:24;;;;;;;5.63;1.55;;;;;;;19.81;60.83;100913.50;4882885;29;20028;-74
2022/07/13 02:37:52;;;;;;;2.53;1.45;;;;;;;19.75;61.29;100912.78;4864567;29;20053;-75
2022/07/13 02:40:17;;;;;;;1.38;0.93;;;;;;;19.73;60.99;100911.44;4845235;29;20040;-74
2022/07/13 02:42:44;;;;;;;4.22;1.05;;;;;;;19.70;61.05;100912.94;4859747;29;20401;-73
2022/07/13 02:45:09;;;;;;;4.78;1.30;;;;;;;19.66;61.11;100912.72;4883877;29;20422;-74
2022/07/13 02:47:35;;;;;;;2.05;1.10;;;;;;;19.66;61.44;100906.38;4858948;29;20107;-74
2022/07/13 02:50:01;;;;;;;1.90;1.30;;;;;;;19.63;61.66;100899.47;4859985;29;20029;-73
2022/07/13 02:52:26;;;;;;;1.90;1.20;;;;;;;19.58;61.14;100894.09;4866517;29;20369;-73
2022/07/13 02:54:52;;;;;;;1.75;0.95;;;;;;;19.60;60.80;100902.91;4865408;29;20036;-73
2022/07/13 02:57:17;;;;;;;2.78;1.13;;;;;;;19.54;60.92;100893.06;4878265;29;20057;-73
2022/07/13 02:59:43;;;;;;;2.90;1.10;;;;;;;19.60;60.78;100902.09;4844969;29;20040;-73
2022/07/13 03:02:08;;;;;;;8.20;1.65;;;;;;;19.62;60.58;100911.72;4835069;29;20185;-72
2022/07/13 03:04:34;;;;;;;2.15;1.10;;;;;;;19.63;61.30;100907.81;4881978;29;20048;-73
2022/07/13 03:07:00;;;;;;;1.67;1.35;;;;;;;19.61;60.80;100901.75;4863316;29;20100;-73
2022/07/13 03:09:26;;;;;;;3.58;1.25;;;;;;;19.60;60.61;100891.78;4862103;29;20048;-71
2022/07/13 03:11:51;;;;;;;1.50;1.10;;;;;;;19.59;60.62;100901.25;4865801;29;20477;-72
2022/07/13 03:14:17;;;;;;;1.02;0.80;;;;;;;19.59;60.87;100901.25;4866069;29;20485;-72
2022/07/13 03:16:43;;;;;;;7.13;1.17;;;;;;;19.58;61.02;100912.66;4864688;29;20064;-73
2022/07/13 03:19:08;;;;;;;1.23;0.82;;;;;;;19.56;61.06;100904.66;4864145;29;20033;-72
2022/07/13 03:21:35;;;;;;;1.60;0.82;;;;;;;19.50;60.94;100892.84;4882093;29;20096;-73
2022/07/13 03:24:00;;;;;;;1.85;1.05;;;;;;;19.48;60.93;100902.66;4870160;29;20032;-71
2022/07/13 03:26:26;;;;;;;0.95;0.82;;;;;;;19.34;60.79;100894.38;4879938;29;20037;-72
2022/07/13 03:28:51;;;;;;;2.60;1.13;;;;;;;19.29;60.93;100902.81;4867858;29;20472;-74
2022/07/13 03:31:17;;;;;;;2.55;1.30;;;;;;;19.20;61.49;100899.97;4866796;29;20052;-73
2022/07/13 03:33:43;;;;;;;1.60;1.00;;;;;;;19.12;61.69;100900.72;4879601;29;20033;-72
2022/07/13 03:36:08;;;;;;;5.07;1.27;;;;;;;18.98;61.45;100893.25;4882952;29;20043;-74
2022/07/13 03:38:35;;;;;;;6.32;1.00;;;;;;;18.89;61.84;100899.84;4862750;29;20041;-73
2022/07/13 03:41:00;;;;;;;1.75;1.10;;;;;;;18.76;62.35;100894.00;4883825;29;20029;-73
2022/07/13 03:43:26;;;;;;;6.25;1.20;;;;;;;18.70;62.26;100897.97;4866327;29;20057;-73
2022/07/13 03:45:51;;;;;;;2.60;0.90;;;;;;;18.63;62.54;100895.66;4865956;29;20036;-72
2022/07/13 03:48:18;;;;;;;2.50;0.90;;;;;;;18.58;62.98;100897.69;4873950;29;20116;-73
2022/07/13 03:50:44;;;;;;;3.25;1.13;;;;;;;18.58;62.97;100889.38;4886335;29;20040;-72
2022/07/13 03:53:09;;;;;;;2.70;1.02;;;;;;;18.60;63.25;100895.44;4868079;29;20127;-73
2022/07/13 03:55:36;;;;;;;1.63;0.80;;;;;;;18.57;63.29;100898.81;4881613;29;20065;-73
2022/07/13 03:58:02;;;;;;;1.85;0.90;;;;;;;18.52;63.98;100893.41;4866405;29;20040;-73
2022/07/13 04:00:28;;;;;;;1.08;0.90;;;;;;;18.48;63.90;100895.94;4875216;29;20804;-73
2022/07/13 04:02:53;;;;;;;1.23;1.00;;;;;;;18.44;64.81;100898.53;4882824;29;20045;-72
2022/07/13 04:05:19;;;;;;;7.00;1.30;;;;;;;18.43;65.34;100901.59;4838738;29;20479;-73
2022/07/13 04:07:45;;;;;;;3.35;1.00;;;;;;;18.43;65.25;100888.56;4868420;29;20413;-73
2022/07/13 04:10:10;;;;;;;5.00;0.98;;;;;;;18.41;65.56;100888.06;4869821;29;20552;-73
2022/07/13 04:12:36;;;;;;;1.75;1.15;;;;;;;18.47;65.84;100894.31;4866915;29;20116;-74
2022/07/13 04:15:02;;;;;;;1.98;1.00;;;;;;;18.51;65.49;100900.88;4881881;29;20461;-73
2022/07/13 04:17:27;;;;;;;1.90;1.10;;;;;;;18.54;65.88;100903.03;4847534;29;20052;-73
2022/07/13 04:19:53;;;;;;;1.33;0.90;;;;;;;18.61;65.89;100900.66;4882301;29;20436;-73
2022/07/13 04:22:18;;;;;;;2.28;1.30;;;;;;;18.63;65.64;100900.34;4884881;29;20033;-72
2022/07/13 04:24:45;;;;;;;1.75;1.20;;;;;;;18.77;65.65;100908.66;4865921;29;20491;-72
2022/07/13 04:27:10;;;;;;;4.32;1.20;;;;;;;18.81;65.23;100909.69;4868599;29;20119;-72
2022/07/13 04:29:36;;;;;;;1.63;1.20;;;;;;;18.86;65.12;100912.34;4866829;29;20067;-72
2022/07/13 04:32:01;;;;;;;2.08;0.90;;;;;;;18.95;64.57;100921.59;4867617;29;20041;-72
2022/07/13 04:34:27;;;;;;;3.58;1.13;;;;;;;19.00;64.77;100909.56;4878645;29;20119;-74
2022/07/13 04:36:52;;;;;;;2.00;0.90;;;;;;;19.05;64.33;100905.88;4867234;29;20473;-72
2022/07/13 04:39:18;;;;;;;1.45;1.00;;;;;;;19.13;64.40;100921.78;4868323;29;20036;-73
2022/07/13 04:41:43;;;;;;;2.42;1.30;;;;;;;19.16;64.16;100916.41;4867306;29;20036;-74
2022/07/13 04:44:09;;;;;;;2.42;1.08;;;;;;;19.19;63.64;100914.97;4866798;29;20052;-73
2022/07/13 04:46:34;;;;;;;1.75;0.90;;;;;;;19.22;63.90;100919.88;4884674;29;20045;-73
2022/07/13 04:49:00;;;;;;;2.35;1.30;;;;;;;19.18;63.62;100907.78;4884312;29;20076;-73
2022/07/13 04:51:25;;;;;;;2.25;0.98;;;;;;;19.24;63.19;100917.59;4866424;29;20036;-74
2022/07/13 04:53:51;;;;;;;2.17;1.20;;;;;;;19.23;63.11;100921.53;4885429;29;20029;-73
2022/07/13 04:56:16;;;;;;;2.63;0.80;;;;;;;19.30;63.36;100919.16;4868141;29;20033;-73
2022/07/13 04:58:41;;;;;;;1.40;1.05;;;;;;;19.35;63.32;100923.75;4885470;29;20086;-73
2022/07/13 05:01:07;;;;;;;3.47;1.17;;;;;;;19.38;63.24;100922.28;4868990;29;20037;-72
2022/07/13 05:03:33;;;;;;;0.98;0.82;;;;;;;19.38;63.03;100927.81;4865845;29;20040;-72
2022/07/13 05:05:59;;;;;;;1.83;0.80;;;;;;;19.47;62.32;100928.75;4867836;29;20033;-73
2022/07/13 05:08:25;;;;;;;1.50;0.82;;;;;;;19.56;61.57;100937.94;4868344;29;20033;-73
2022/07/13 05:10:51;;;;;;;1.70;0.70;;;;;;;19.65;61.90;100933.25;4883333;29;20029;-74
2022/07/13 05:13:17;;;;;;;0.40;0.40;;;;;;;19.76;60.79;100933.84;4851101;29;20081;-74
2022/07/13 05:15:42;;;;;;;2.25;0.90;;;;;;;19.82;60.15;100942.91;4855615;29;20040;-73
2022/07/13 05:18:08;;;;;;;0.60;0.50;;;;;;;19.92;59.57;100939.03;4866428;29;20040;-73
2022/07/13 05:20:34;;;;;;;2.60;0.82;;;;;;;19.96;58.84;100938.09;4867055;29;20033;-72
2022/07/13 05:22:59;;;;;;;5.82;0.70;;;;;;;20.04;58.97;100950.38;4880978;29;20032;-72
2022/07/13 05:25:24;;;;;;;1.67;0.70;;;;;;;20.08;58.44;100942.22;4852715;29;20807;-73
2022/07/13 05:27:52;;;;;;;2.08;0.70;;;;;;;20.14;58.52;100949.31;4864969;29;20028;-74
2022/07/13 05:30:19;;;;;;;4.93;1.00;;;;;;;20.20;58.04;100948.81;4829816;29;20608;-74
2022/07/13 05:32:45;;;;;;;3.05;0.80;;;;;;;20.22;58.02;100952.13;4811941;29;20046;-74
2022/07/13 05:35:11;;;;;;;1.15;0.77;;;;;;;20.29;57.82;100959.97;4819706;29;20046;-74
2022/07/13 05:37:36;;;;;;;1.40;0.70;;;;;;;20.36;57.53;100968.69;4813451;29;20037;-73
2022/07/13 05:40:02;;;;;;;3.05;0.82;;;;;;;20.39;57.33;100956.13;4831735;29;20034;-73
2022/07/13 05:42:28;;;;;;;1.42;0.80;;;;;;;20.46;57.42;100961.19;4825093;29;20521;-73
2022/07/13 05:44:54;;;;;;;1.15;0.73;;;;;;;20.51;57.16;100963.84;4805183;29;20561;-73
2022/07/13 05:47:19;;;;;;;1.83;0.82;;;;;;;20.57;56.91;100959.78;4825591;29;20113;-74
2022/07/13 05:49:45;;;;;;;2.08;0.77;;;;;;;20.65;56.72;100956.22;4827651;29;20049;-75
2022/07/13 05:52:11;;;;;;;2.15;0.88;;;;;;;20.84;56.47;100960.75;4811248;29;20026;-74
2022/07/13 05:54:37;;;;;;;3.85;0.88;;;;;;;21.02;56.39;100956.84;4830578;29;20026;-73
2022/07/13 05:57:02;;;;;;;3.67;0.80;;;;;;;21.06;55.40;100963.38;4799019;29;20077;-73
2022/07/13 05:59:28;;;;;;;2.03;0.75;;;;;;;21.15;55.81;100960.63;4801157;29;20074;-74
2022/07/13 06:01:53;;;;;;;1.30;0.60;;;;;;;21.29;55.49;100957.72;4829338;29;20433;-74
2022/07/13 06:04:19;;;;;;;1.02;0.63;;;;;;;21.38;55.52;100964.09;4818914;29;20195;-74
2022/07/13 06:06:48;;;;;;;2.05;0.50;;;;;;;21.51;55.28;100961.50;4823797;29;20046;-73
2022/07/13 06:09:13;;;;;;;3.88;1.02;;;;;;;21.57;54.85;100963.78;4806369;29;20184;-71
2022/07/13 06:11:42;;;;;;;1.60;0.80;;;;;;;21.66;54.79;100966.56;4825491;29;20444;-71
2022/07/13 06:14:07;;;;;;;1.58;0.70;;;;;;;21.79;54.84;100964.78;4818511;29;20150;-72
2022/07/13 06:16:33;;;;;;;7.95;1.20;;;;;;;21.90;54.21;100959.66;4807389;29;20038;-71
2022/07/13 06:18:59;;;;;;;1.15;0.60;;;;;;;22.02;54.26;100957.03;4811062;29;20041;-72
2022/07/13 06:21:25;;;;;;;2.42;0.75;;;;;;;22.18;53.63;100953.72;4871290;29;20041;-73
2022/07/13 06:23:51;;;;;;;3.10;1.00;;;;;;;22.24;53.17;100964.34;4884219;29;20388;-72
2022/07/13 06:26:16;;;;;;;2.15;0.90;;;;;;;22.23;53.67;100965.50;4848886;29;20033;-72
2022/07/13 06:28:42;;;;;;;2.97;0.95;;;;;;;22.25;53.44;100954.00;4839694;29;20056;-73
2022/07/13 06:31:07;;;;;;;0.90;0.70;;;;;;;22.40;53.48;100961.88;4877869;29;20040;-73
2022/07/13 06:33:33;;;;;;;1.83;0.90;;;;;;;22.49;53.41;100959.84;4867199;29;20033;-73
2022/07/13 06:35:58;;;;;;;3.30;0.80;;;;;;;22.54;53.28;100960.84;4882678;29;20043;-72
2022/07/13 06:38:23;;;;;;;0.93;0.50;;;;;;;22.64;52.84;100963.25;4834681;29;20036;-73
2022/07/13 06:40:49;;;;;;;1.23;0.60;;;;;;;22.67;52.54;100965.34;4867035;29;20044;-73
2022/07/13 06:43:15;;;;;;;3.80;1.30;;;;;;;22.66;52.81;100978.47;4883194;29;20048;-72
2022/07/13 06:45:41;;;;;;;2.08;1.10;;;;;;;22.68;53.12;100975.38;4850820;29;20103;-72
2022/07/13 06:48:06;;;;;;;1.88;0.88;;;;;;;22.74;53.17;100979.59;4883302;29;20028;-73
2022/07/13 06:50:33;;;;;;;0.88;0.60;;;;;;;22.75;53.05;100974.81;4860923;29;20530;-72
2022/07/13 06:52:59;;;;;;;2.85;0.88;;;;;;;22.75;52.73;100974.81;4837126;29;20041;-74
2022/07/13 06:55:25;;;;;;;2.75;0.82;;;;;;;22.83;52.92;100988.72;4850145;29;20193;-73
2022/07/13 06:57:51;;;;;;;2.13;0.68;;;;;;;22.81;52.39;100991.03;4848728;29;20029;-73
2022/07/13 07:00:17;;;;;;;1.63;0.88;;;;;;;22.86;52.14;100992.00;4863696;29;20033;-72
2022/07/13 07:02:42;;;;;;;2.72;0.65;;;;;;;22.94;52.25;100991.13;4871302;29;20036;-74
2022/07/13 07:05:11;;;;;;;3.22;0.50;;;;;;;23.01;52.50;100988.63;4881046;29;20041;-72
2022/07/13 07:07:41;;;;;;;2.45;0.77;;;;;;;23.04;51.96;100993.53;4863116;29;20024;-73
2022/07/13 07:10:08;;;;;;;1.42;0.65;;;;;;;22.97;52.59;100993.25;4865172;29;20033;-73
2022/07/13 07:12:33;;;;;;;2.47;0.88;;;;;;;22.93;52.11;100992.28;4864922;29;20037;-71
2022/07/13 07:14:59;;;;;;;1.48;0.70;;;;;;;22.94;52.28;100993.91;4871100;29;20052;-72
2022/07/13 07:17:24;;;;;;;2.58;1.15;;;;;;;22.96;52.31;100997.19;4865701;29;20477;-71
2022/07/13 07:19:49;;;;;;;2.47;1.33;;;;;;;22.94;52.01;100993.91;4881505;29;20056;-71
2022/07/13 07:22:15;;;;;;;2.30;1.40;;;;;;;22.82;51.69;100984.31;4881287;29;20086;-70
2022/07/13 07:24:41;;;;;;;3.60;2.25;;;;;;;22.82;52.11;100989.06;4863892;29;20029;-72
2022/07/13 07:27:10;;;;;;;3.13;2.05;;;;;;;22.83;51.65;100991.50;4863917;29;20021;-73
2022/07/13 07:29:36;;;;;;;4.72;2.50;;;;;;;22.94;51.76;100993.91;4874662;29;20096;-72
2022/07/13 07:32:01;;;;;;;3.92;2.00;;;;;;;23.14;51.24;100993.19;4880024;29;20073;-71
2022/07/13 07:34:28;;;;;;;4.03;1.90;;;;;;;23.37;51.32;100990.06;4883300;29;20037;-72
2022/07/13 07:36:53;;;;;;;5.38;2.63;;;;;;;23.63;50.66;101001.03;4849534;29;20059;-72
2022/07/13 07:39:18;;;;;;;5.03;2.78;;;;;;;23.81;49.39;100998.09;4858844;29;20123;-71
2022/07/13 07:41:44;;;;;;;5.55;3.15;;;;;;;24.02;49.18;100992.47;4862929;29;20033;-72
2022/07/13 07:44:09;;;;;;;4.38;2.33;;;;;;;24.26;48.84;100996.53;4846981;29;20488;-71
2022/07/13 07:46:35;;;;;;;3.38;2.20;;;;;;;24.53;48.58;101000.63;4875006;29;20063;-71
2022/07/13 07:49:02;;;;;;;6.28;3.17;;;;;;;24.72;47.86;101000.09;4875597;29;20033;-73
2022/07/13 07:51:28;;;;;;;8.65;2.97;;;;;;;25.01;47.36;100992.66;4861009;29;20048;-72
2022/07/13 07:53:54;;;;;;;6.78;3.00;;;;;;;25.52;46.48;100984.66;4867614;29;20025;-71
2022/07/13 07:56:19;;;;;;;3.78;2.75;;;;;;;26.15;45.30;100990.84;4864505;29;20033;-69
2022/07/13 07:58:45;;;;;;;4.05;2.47;;;;;;;26.53;44.86;100993.03;4876158;29;20033;-69
2022/07/13 08:01:10;;;;;;;3.70;1.63;;;;;;;26.78;44.36;100993.72;4879218;29;20437;-70
2022/07/13 08:03:36;;;;;;;3.65;1.95;;;;;;;26.91;43.83;100988.81;4860308;29;20056;-69
2022/07/13 08:06:02;;;;;;;2.70;1.80;;;;;;;26.92;44.15;100996.03;4857627;29;20085;-69
2022/07/13 08:08:28;;;;;;;2.85;2.13;;;;;;;26.93;44.15;100988.44;4859027;29;20101;-69
2022/07/13 08:10:54;;;;;;;4.18;2.20;;;;;;;26.88;44.15;100992.31;4861181;29;20025;-70
2022/07/13 08:13:19;;;;;;;3.97;2.55;;;;;;;26.81;43.96;101009.81;4880529;29;20044;-69
2022/07/13 08:15:45;;;;;;;3.78;2.70;;;;;;;26.73;43.69;101001.59;4837751;29;20053;-69
2022/07/13 08:18:10;;;;;;;4.07;3.00;;;;;;;26.71;44.21;101003.91;4864603;29;20404;-68
2022/07/13 08:20:36;;;;;;;7.05;3.50;;;;;;;26.71;43.91;101003.91;4878887;29;20373;-69
2022/07/13 08:23:02;;;;;;;4.75;2.80;;;;;;;26.84;43.91;100997.06;4852982;29;20033;-69
2022/07/13 08:25:28;;;;;;;9.13;4.20;;;;;;;26.91;43.70;101000.03;4861542;29;20373;-69
2022/07/13 08:27:54;;;;;;;7.47;4.88;;;;;;;27.10;43.57;101004.91;4882265;29;20100;-69
2022/07/13 08:30:20;;;;;;;6.82;5.18;;;;;;;27.13;43.33;101003.31;4863271;29;20033;-70
2022/07/13 08:32:45;;;;;;;6.90;4.22;;;;;;;27.33;42.94;101007.81;4846926;29;20049;-68
2022/07/13 08:40:43;;;;;;;;;;;;;;;28.59;41.40;101009.53;4863365;29;20093;-69
2022/07/13 08:43:09;;;;;;;2.80;1.58;;;;;;;28.90;39.93;101024.56;4854445;29;20040;-70
2022/07/13 08:45:34;;;;;;;3.55;1.60;;;;;;;29.08;39.72;101025.63;4865135;29;20076;-68
2022/07/13 08:48:04;;;;;;;1.40;1.17;;;;;;;28.97;38.86;101030.31;4878211;29;20341;-68
2022/07/13 08:50:33;;;;;;;1.27;1.05;;;;;;;28.96;39.15;101033.50;4870364;29;20036;-70
2022/07/13 08:53:00;;;;;;;0.98;0.80;;;;;;;29.02;39.63;101035.59;4865343;29;20433;-69
2022/07/13 08:55:25;;;;;;;3.33;0.90;;;;;;;29.05;38.96;101037.66;4861750;29;20029;-69
2022/07/13 08:57:51;;;;;;;0.68;0.60;;;;;;;29.07;39.37;101029.66;4871773;29;20497;-68
2022/07/13 09:00:21;;;;;;;1.10;0.52;;;;;;;29.07;38.72;101029.66;4876992;29;20695;-70
2022/07/13 09:02:48;;;;;;;0.93;0.65;;;;;;;28.91;39.13;101026.16;4864988;29;20655;-69
2022/07/13 09:05:14;;;;;;;1.25;0.60;;;;;;;28.84;38.95;101026.03;4874994;29;20030;-69
2022/07/13 09:07:39;;;;;;;2.20;0.63;;;;;;;28.95;39.05;101029.84;4863199;29;20029;-69
2022/07/13 09:10:05;;;;;;;1.17;0.75;;;;;;;29.16;38.22;101026.56;4879062;29;20084;-68
2022/07/13 09:12:32;;;;;;;0.80;0.60;;;;;;;29.30;38.35;101039.25;4875578;29;20031;-69
2022/07/13 09:15:00;;;;;;;1.00;0.52;;;;;;;29.27;38.16;101043.63;4878385;29;20104;-69
2022/07/13 09:17:33;;;;;;;1.25;0.80;;;;;;;29.37;37.76;101023.25;4861283;29;20392;-68
2022/07/13 09:20:20;;;;;;;1.10;0.57;;;;;;;29.47;38.01;101043.50;4876904;29;20472;-69
2022/07/13 09:22:48;;;;;;;2.35;0.80;;;;;;;29.46;37.68;101045.53;4876015;29;20049;-68
2022/07/13 09:25:33;;;;;;;0.60;0.35;;;;;;;29.36;37.77;101035.72;4878011;29;20045;-68
2022/07/13 09:28:04;;;;;;;0.98;0.77;;;;;;;29.56;37.45;101035.59;4876489;29;20109;-68
2022/07/13 09:30:31;;;;;;;1.45;1.10;;;;;;;29.81;37.62;101043.56;4877818;29;20036;-70
2022/07/13 09:32:58;;;;;;;5.22;1.35;;;;;;;30.09;36.18;101043.91;4862334;29;20037;-69
2022/07/13 09:35:41;;;;;;;3.78;1.90;;;;;;;30.18;35.58;101037.16;4880091;29;20040;-69
2022/07/13 09:38:26;;;;;;;3.83;1.70;;;;;;;30.47;35.65;101043.94;4870770;29;20108;-69
2022/07/13 09:40:51;;;;;;;4.45;2.40;;;;;;;30.91;35.13;101031.03;4862390;29;20405;-72
2022/07/13 09:46:11;;;;;;;2.13;1.77;;;;;;;31.57;33.70;101033.09;4864424;29;20057;-71
2022/07/13 09:48:38;;;;;;;3.15;2.10;;;;;;;31.81;33.57;101026.75;4879644;29;20048;-69
2022/07/13 09:51:04;;;;;;;5.78;2.30;;;;;;;31.94;33.32;101034.88;4861569;29;20060;-69
2022/07/13 09:53:34;;;;;;;3.38;2.13;;;;;;;32.12;33.32;101030.09;4863042;29;20040;-68
2022/07/13 09:56:02;;;;;;;3.03;2.00;;;;;;;32.39;33.35;101037.44;4873631;29;20025;-68
2022/07/13 09:58:33;;;;;;;2.53;1.95;;;;;;;32.68;32.85;101039.13;4860010;29;20029;-68
2022/07/13 10:01:01;;;;;;;1.88;1.75;;;;;;;33.06;32.58;101044.38;4881119;29;20056;-69
2022/07/13 10:03:31;;;;;;;2.67;1.90;;;;;;;33.48;31.87;101054.00;4858775;29;20130;-69
2022/07/13 10:05:58;;;;;;;2.80;2.25;;;;;;;33.78;31.38;101047.06;4874548;29;20095;-69
2022/07/13 10:08:24;;;;;;;1.95;1.70;;;;;;;33.95;31.25;101055.88;4860271;29;20037;-68
2022/07/13 10:10:52;;;;;;;3.88;2.72;;;;;;;33.85;30.54;101061.22;4857924;29;20503;-70
2022/07/13 10:13:18;;;;;;;5.07;3.33;;;;;;;33.56;30.68;101057.66;4854489;29;20060;-69
2022/07/13 10:15:45;;;;;;;4.85;3.63;;;;;;;33.09;30.98;101057.72;4866933;29;20072;-69
2022/07/13 10:18:17;;;;;;;3.72;2.83;;;;;;;32.80;31.40;101057.72;4897213;29;20048;-69
2022/07/13 10:20:51;;;;;;;5.18;3.83;;;;;;;32.58;31.50;101056.06;4892443;29;20055;-70
2022/07/13 10:23:32;;;;;;;6.55;4.35;;;;;;;32.24;32.30;101064.91;4897456;29;20036;-69
2022/07/13 10:25:58;;;;;;;5.30;3.42;;;;;;;32.20;32.24;101064.91;4896991;29;20032;-69
2022/07/13 10:28:23;;;;;;;5.20;3.60;;;;;;;32.23;32.07;101068.94;4877724;29;20039;-70
2022/07/13 10:30:49;;;;;;;6.55;3.35;;;;;;;32.34;32.02;101069.78;4894931;29;20033;-70
2022/07/13 10:33:24;;;;;;;5.18;4.13;;;;;;;32.34;32.13;101069.78;4901879;29;20047;-70
2022/07/13 10:35:55;;;;;;;6.80;4.78;;;;;;;32.35;31.57;101072.19;4896009;29;20468;-69
2022/07/13 10:38:32;;;;;;;8.60;5.53;;;;;;;32.25;31.68;101060.88;4894935;29;20468;-68
2022/07/13 10:41:23;;;;;;;13.30;8.15;;;;;;;32.13;31.87;101077.00;4898495;29;20025;-72
2022/07/13 10:44:05;;;;;;;11.50;6.85;;;;;;;31.92;32.27;101076.88;4857718;29;20457;-70
2022/07/13 10:46:50;;;;;;;8.45;5.20;;;;;;;31.90;32.53;101074.44;4895654;29;20041;-71
2022/07/13 10:49:31;;;;;;;12.35;6.13;;;;;;;31.76;32.44;101080.88;4878900;29;20444;-70
2022/07/13 10:51:59;;;;;;;10.57;5.78;;;;;;;31.63;32.77;101073.94;4895443;29;20027;-69
2022/07/13 10:54:25;;;;;;;10.15;5.28;;;;;;;31.75;32.58;101078.44;4892081;29;20033;-70
2022/07/13 10:57:14;;;;;;;8.60;4.82;;;;;;;32.10;32.52;101072.09;4878872;29;20084;-69
2022/07/13 10:59:47;;;;;;;8.57;4.47;;;;;;;32.70;31.60;101086.84;4881179;29;20048;-68
2022/07/13 11:02:32;;;;;;;;;;;;;;;32.98;30.99;101088.88;4883373;29;20088;-70
2022/07/13 11:05:00;;;;;;;4.32;2.95;;;;;;;33.20;30.36;101078.31;4892628;29;19915;-70
2022/07/13 11:07:39;;;;;;;3.15;1.80;;;;;;;33.44;30.46;101083.56;4896282;29;20032;-73
2022/07/13 11:10:25;;;;;;;3.85;1.90;;;;;;;34.35;29.50;101084.91;4893119;29;21404;-72
2022/07/13 11:13:12;;;;;;;3.58;2.22;;;;;;;35.46;28.05;101083.19;4881454;29;20119;-72
2022/07/13 11:15:49;;;;;;;3.72;1.92;;;;;;;36.32;26.82;101082.16;4899339;29;20108;-72
2022/07/13 11:18:20;;;;;;;1.77;1.55;;;;;;;37.06;26.37;101082.63;4882381;29;20061;-73
2022/07/13 11:21:05;;;;;;;2.33;1.63;;;;;;;36.94;24.97;101084.88;4895187;29;20045;-73
2022/07/13 11:26:51;;;;;;;4.68;1.73;;;;;;;35.99;26.44;101086.66;4899671;29;20095;-71
2022/07/13 11:29:20;;;;;;;3.60;2.10;;;;;;;36.08;27.11;101086.94;4909777;29;20032;-73
2022/07/13 11:31:46;;;;;;;2.20;2.00;;;;;;;36.09;26.64;101080.00;4901562;29;20025;-73
2022/07/13 11:34:11;;;;;;;6.68;1.80;;;;;;;36.11;26.75;101085.28;4880420;29;20528;-72
2022/07/13 11:36:41;;;;;;;3.40;2.13;;;;;;;35.80;26.72;101085.28;4892894;29;20563;-71
2022/07/13 11:39:31;;;;;;;3.00;1.38;;;;;;;35.82;27.19;101077.09;4899415;29;20047;-73
2022/07/13 11:41:59;;;;;;;4.22;1.95;;;;;;;35.48;26.42;101069.34;4899937;29;20024;-71
2022/07/13 11:44:29;;;;;;;2.83;1.85;;;;;;;35.08;27.34;101074.63;4879707;29;20052;-72
2022/07/13 11:46:57;;;;;;;2.75;1.48;;;;;;;35.16;27.21;101076.16;4898587;29;20035;-73